Time;durP1;ratioP1;P1;durP2;ratioP2;P2;SDS_P1;SDS_P2;PMS_P1;PMS_P2;Temp;Humidity;BMP_temperature;BMP_pressure;BME280_temperature;BME280_humidity;BME280_pressure;Samples;Min_cycle;Max_cycle;Signal;HPM_P1;HPM_P2
2023/08/29 00:00:17;;;;;;;10.02;3.67;;;;;;;;;;5114265;28;20092;-91
2023/08/29 00:03:03;;;;;;;5.28;3.63;;;;;;;;;;5114874;28;20046;-91
2023/08/29 00:05:48;;;;;;;6.20;4.00;;;;;;;;;;5100157;28;20042;-91
2023/08/29 00:08:33;;;;;;;8.85;4.20;;;;;;;;;;5114118;28;20115;-91
2023/08/29 00:11:17;;;;;;;5.50;3.80;;;;;;;;;;5114384;28;20038;-92
2023/08/29 00:14:02;;;;;;;5.93;3.65;;;;;;;;;;5114545;28;20116;-91
2023/08/29 00:16:47;;;;;;;9.85;4.63;;;;;;;;;;5099144;28;20047;-90
2023/08/29 00:19:31;;;;;;;8.20;4.88;;;;;;;;;;5098321;28;20062;-91
2023/08/29 00:22:16;;;;;;;6.45;4.38;;;;;;;;;;5098619;28;20088;-90
2023/08/29 00:25:01;;;;;;;8.63;4.10;;;;;;;;;;5119402;27;20039;-92
2023/08/29 00:27:45;;;;;;;7.50;4.60;;;;;;;;;;5114215;28;20042;-90
2023/08/29 00:30:40;;;;;;;9.80;3.75;;;;;;;;;;5112626;28;20045;-92
2023/08/29 00:33:24;;;;;;;6.55;4.00;;;;;;;;;;5113585;28;20392;-92
2023/08/29 00:36:09;;;;;;;6.88;3.60;;;;;;;;;;5098837;28;20449;-91
2023/08/29 00:38:53;;;;;;;6.47;3.90;;;;;;;;;;5096588;28;20039;-91
2023/08/29 00:41:38;;;;;;;12.40;5.15;;;;;;;;;;5101528;28;20034;-92
2023/08/29 00:44:22;;;;;;;10.23;4.30;;;;;;;;;;5109381;27;20042;-91
2023/08/29 00:47:07;;;;;;;4.97;3.72;;;;;;;;;;5096388;28;20074;-91
2023/08/29 00:49:52;;;;;;;5.47;4.25;;;;;;;;;;5113644;28;20063;-90
2023/08/29 00:52:36;;;;;;;8.35;4.55;;;;;;;;;;5113381;28;20078;-92
2023/08/29 00:55:21;;;;;;;8.52;4.22;;;;;;;;;;5112167;28;20034;-91
2023/08/29 00:58:06;;;;;;;5.15;3.97;;;;;;;;;;5113728;28;20097;-90
2023/08/29 01:00:50;;;;;;;6.75;4.07;;;;;;;;;;5113555;28;20042;-90
2023/08/29 01:03:36;;;;;;;7.80;4.30;;;;;;;;;;5097309;28;20078;-90
2023/08/29 01:06:21;;;;;;;9.68;5.20;;;;;;;;;;5113883;27;20042;-93
2023/08/29 01:09:06;;;;;;;6.47;4.20;;;;;;;;;;5113557;28;20058;-91
2023/08/29 01:11:57;;;;;;;6.97;4.43;;;;;;;;;;5113305;28;20467;-90
2023/08/29 01:14:53;;;;;;;7.15;4.43;;;;;;;;;;5086833;28;20058;-91
2023/08/29 01:17:54;;;;;;;8.57;4.15;;;;;;;;;;5115077;27;20042;-90
2023/08/29 01:20:39;;;;;;;7.22;4.43;;;;;;;;;;5116589;27;20791;-90
2023/08/29 01:23:40;;;;;;;7.00;4.60;;;11.80;99.90;;;;;;5097348;28;20042;-91
2023/08/29 01:26:26;;;;;;;8.68;4.57;;;;;;;;;;5119964;27;20035;-92
2023/08/29 01:29:12;;;;;;;9.98;3.97;;;;;;;;;;5112122;28;20509;-92
2023/08/29 01:31:57;;;;;;;6.65;4.05;;;;;;;;;;5099922;28;20035;-90
2023/08/29 01:34:44;;;;;;;5.28;4.00;;;;;;;;;;5096965;28;20092;-90
2023/08/29 01:37:29;;;;;;;6.43;4.28;;;;;;;;;;5106784;28;20137;-90
2023/08/29 01:40:13;;;;;;;6.55;3.70;;;;;;;;;;5112779;28;20058;-91
2023/08/29 01:42:58;;;;;;;8.93;4.72;;;;;;;;;;5112994;28;20403;-87
2023/08/29 01:45:43;;;;;;;11.27;4.65;;;;;;;;;;5114508;27;20165;-90
2023/08/29 01:48:28;;;;;;;8.70;4.60;;;;;;;;;;5114999;27;20039;-89
2023/08/29 01:51:13;;;;;;;7.60;4.47;;;;;;;;;;5112838;28;20088;-91
2023/08/29 01:53:57;;;;;;;5.95;4.10;;;;;;;;;;5112687;28;20047;-90
2023/08/29 01:56:42;;;;;;;9.18;4.47;;;;;;;;;;5111940;28;20674;-91
2023/08/29 01:59:28;;;;;;;7.85;4.72;;;;;;;;;;5112164;28;20085;-91
2023/08/29 02:02:14;;;;;;;6.22;4.05;;;;;;;;;;5097052;28;20086;-91
2023/08/29 02:04:59;;;;;;;6.65;3.97;;;;;;;;;;5110875;28;20294;-91
2023/08/29 02:07:43;;;;;;;6.03;4.03;;;;;;;;;;5124614;27;20137;-92
2023/08/29 02:10:28;;;;;;;6.75;3.78;;;;;;;;;;5109805;28;20051;-90
2023/08/29 02:13:12;;;;;;;6.20;3.70;;;;;;;;;;5111411;28;20050;-91
2023/08/29 02:15:57;;;;;;;4.88;3.70;;;;;;;;;;5096922;28;20093;-91
2023/08/29 02:18:41;;;;;;;6.63;3.90;;;;;;;;;;5111689;28;20468;-90
2023/08/29 02:21:26;;;;;;;6.55;3.92;;;;;;;;;;5112115;28;20047;-85
2023/08/29 02:24:11;;;;;;;5.05;3.67;;;;;;;;;;5112097;28;20047;-89
2023/08/29 02:26:55;;;;;;;5.57;3.97;;;;;;;;;;5123510;27;20038;-91
2023/08/29 02:29:40;;;;;;;6.95;4.05;;;;;;;;;;5104946;28;20081;-91
2023/08/29 02:32:25;;;;;;;5.95;4.63;;;;;;;;;;5111695;28;20088;-87
2023/08/29 02:35:10;;;;;;;10.38;4.60;;;;;;;;;;5112359;28;20047;-91
2023/08/29 02:37:54;;;;;;;5.57;4.07;;;;;;;;;;5096622;28;20100;-91
2023/08/29 02:40:39;;;;;;;6.28;4.18;;;;;;;;;;5111810;28;20069;-92
2023/08/29 02:43:23;;;;;;;5.10;3.70;;;;;;;;;;5099664;28;20078;-93
2023/08/29 02:46:08;;;;;;;7.75;4.53;;;;;;;;;;5113052;28;20070;-90
2023/08/29 02:48:52;;;;;;;6.05;4.47;;;;;;;;;;5096278;28;20056;-91
2023/08/29 02:51:37;;;;;;;6.57;4.20;;;;;;;;;;5111453;28;20506;-90
2023/08/29 02:54:21;;;;;;;6.70;3.80;;;;;;;;;;5112100;28;20038;-88
2023/08/29 02:57:06;;;;;;;5.85;4.18;;;;;;;;;;5100614;28;20403;-91
2023/08/29 02:59:51;;;;;;;8.90;3.92;;;;;;;;;;5111377;28;20039;-92
2023/08/29 03:02:36;;;;;;;5.43;4.10;;;;;;;;;;5111510;28;20439;-92
2023/08/29 03:05:21;;;;;;;5.05;3.60;;;;;;;;;;5096543;28;20081;-91
2023/08/29 03:08:06;;;;;;;7.30;4.10;;;;;;;;;;5113004;28;20516;-91
2023/08/29 03:10:51;;;;;;;9.07;3.90;;;;;;;;;;5111408;28;20034;-90
2023/08/29 03:13:36;;;;;;;8.15;4.68;;;;;;;;;;5095675;28;20039;-90
2023/08/29 03:16:20;;;;;;;9.02;4.43;;;;;;;;;;5111973;28;20058;-93
2023/08/29 03:19:05;;;;;;;7.05;4.28;;;;;;;;;;5096590;28;20134;-92
2023/08/29 03:21:49;;;;;;;7.05;3.80;;;;;;;;;;5111213;28;20046;-89
2023/08/29 03:24:34;;;;;;;6.93;4.00;;;;;;;;;;5096082;28;20111;-84
2023/08/29 03:27:18;;;;;;;5.30;3.67;;;;;;;;;;5113226;28;20039;-92
2023/08/29 03:30:03;;;;;;;5.75;3.55;;;;;;;;;;5118736;28;20514;-93
2023/08/29 03:32:50;;;;;;;6.85;4.25;;;;;;;;;;5111042;28;20102;-90
2023/08/29 03:35:34;;;;;;;9.52;4.00;;;;;;;;;;5096340;28;20070;-91
2023/08/29 03:38:19;;;;;;;4.82;4.00;;;;;;;;;;5111534;28;20073;-90
2023/08/29 03:41:03;;;;;;;8.52;4.57;;;;;;;;;;5098575;28;20532;-93
2023/08/29 03:43:49;;;;;;;5.95;4.32;;;;;;;;;;5105265;27;20510;-88
2023/08/29 03:46:34;;;;;;;9.93;5.68;;;;;;;;;;5115330;28;20034;-91
2023/08/29 03:49:18;;;;;;;7.88;4.82;;;;;;;;;;5129189;27;20084;-91
2023/08/29 03:52:03;;;;;;;5.95;3.65;;;;;;;;;;5115012;28;20091;-93
2023/08/29 03:54:48;;;;;;;5.55;4.03;;;;;;;;;;5114502;28;20092;-90
2023/08/29 03:57:32;;;;;;;6.47;4.10;;;;;;;;;;5114849;28;20540;-92
2023/08/29 04:00:17;;;;;;;5.18;3.85;;;;;;;;;;5099631;28;20084;-91
2023/08/29 04:03:06;;;;;;;6.88;4.47;;;;;;;;;;5117126;27;20042;-90
2023/08/29 04:05:50;;;;;;;8.68;4.63;;;;;;;;;;5105529;28;20394;-89
2023/08/29 04:08:35;;;;;;;6.60;4.30;;;;;;;;;;5114920;28;20046;-92
2023/08/29 04:11:20;;;;;;;6.35;4.30;;;;;;;;;;5114508;28;20053;-91
2023/08/29 04:14:04;;;;;;;7.00;4.25;;;;;;;;;;5113113;28;20399;-92
2023/08/29 04:16:49;;;;;;;6.50;3.92;;;;;;;;;;5098691;28;20069;-91
2023/08/29 04:19:33;;;;;;;7.32;3.88;;;;;;;;;;5114766;28;20078;-91
2023/08/29 04:22:18;;;;;;;6.40;3.88;;;;;;;;;;5099661;27;20515;-90
2023/08/29 04:25:06;;;;;;;5.93;4.22;;;;;;;;;;5120567;27;20050;-89
2023/08/29 04:27:51;;;;;;;9.45;5.88;;;;;;;;;;5102324;28;20092;-92
2023/08/29 04:30:36;;;;;;;7.80;4.70;;;;;;;;;;5112818;28;20127;-92
2023/08/29 04:33:20;;;;;;;8.00;4.25;;;;;;;;;;5084907;28;20063;-91
2023/08/29 04:36:05;;;;;;;8.85;4.45;;;;;;;;;;5098435;28;20057;-90
2023/08/29 04:38:49;;;;;;;8.05;4.68;;;;;;;;;;5114845;27;20080;-92
2023/08/29 04:41:34;;;;;;;7.72;3.88;;;;;;;;;;5114410;28;20042;-91
2023/08/29 04:44:19;;;;;;;5.30;3.75;;;;;;;;;;5113871;28;20555;-88
2023/08/29 04:47:03;;;;;;;6.63;4.15;;;;;;;;;;5113698;28;20046;-90
2023/08/29 04:49:48;;;;;;;8.18;4.55;;;;;;;;;;5100948;28;20039;-90
2023/08/29 04:52:33;;;;;;;8.40;5.55;;;;;;;;;;5097377;28;20073;-90
2023/08/29 04:55:17;;;;;;;9.32;5.68;;;;;;;;;;5111695;28;20070;-93
2023/08/29 04:58:02;;;;;;;8.02;5.05;;;;;;;;;;5096059;28;20042;-90
2023/08/29 05:00:46;;;;;;;6.57;3.97;;;;;;;;;;5098496;28;20047;-84
2023/08/29 05:03:31;;;;;;;6.80;4.90;;;;;;;;;;5086848;28;20052;-91
2023/08/29 05:06:15;;;;;;;7.43;4.63;;;;;;;;;;5113789;28;20047;-92
2023/08/29 05:09:00;;;;;;;7.97;4.97;;;;;;;;;;5091833;28;20039;-92
2023/08/29 05:11:44;;;;;;;10.07;5.90;;;;;;;;;;5108796;28;20078;-92
2023/08/29 05:14:29;;;;;;;9.10;5.43;;;;;;;;;;5120949;27;20092;-91
2023/08/29 05:17:13;;;;;;;9.75;5.28;;;;;;;;;;5097279;28;20038;-90
2023/08/29 05:19:58;;;;;;;9.15;5.35;;;;;;;;;;5098582;28;20054;-91
2023/08/29 05:22:43;;;;;;;9.98;5.43;;;;;;;;;;5106699;27;20046;-91
2023/08/29 05:25:28;;;;;;;9.00;5.35;;;;;;;;;;5111135;27;20440;-93
2023/08/29 05:28:13;;;;;;;7.03;4.97;;;;;;;;;;5096214;28;20034;-91
2023/08/29 05:30:57;;;;;;;8.32;5.30;;;;;;;;;;5096602;27;20038;-92
2023/08/29 05:33:42;;;;;;;9.18;5.32;;;;;;;;;;5086326;27;20117;-90
2023/08/29 05:36:26;;;;;;;6.78;4.60;;;;;;;;;;5113044;27;20092;-91
2023/08/29 05:39:11;;;;;;;7.95;4.63;;;;;;;;;;5102476;27;20274;-92
2023/08/29 05:41:55;;;;;;;7.70;5.03;;;;;;;;;;5113225;27;20051;-91
2023/08/29 05:44:40;;;;;;;7.22;4.45;;;;;;;;;;5115486;27;20516;-94
2023/08/29 05:47:24;;;;;;;9.45;4.93;;;;;;;;;;5120215;27;20399;-89
2023/08/29 05:50:09;;;;;;;11.55;5.95;;;;;;;;;;5106163;27;20100;-92
2023/08/29 05:52:54;;;;;;;8.30;5.10;;;;;;;;;;5113735;27;20441;-86
2023/08/29 05:55:39;;;;;;;8.13;4.80;;;;;;;;;;5113871;28;20056;-93
2023/08/29 05:58:25;;;;;;;8.57;5.57;;;;;;;;;;5113188;28;20540;-92
2023/08/29 06:01:11;;;;;;;11.60;5.70;;;;;;;;;;5109767;28;20533;-93
2023/08/29 06:03:55;;;;;;;7.68;5.28;;;;;;;;;;5112918;28;20061;-87
2023/08/29 06:06:40;;;;;;;11.23;5.45;;;;;;;;;;5114421;28;20050;-92
2023/08/29 06:09:24;;;;;;;10.02;5.18;;;;;;;;;;5112643;28;20038;-91
2023/08/29 06:12:09;;;;;;;8.60;5.25;;;;;;;;;;5106760;28;20411;-93
2023/08/29 06:14:54;;;;;;;9.40;5.25;;;;;;;;;;5109531;28;20043;-87
2023/08/29 06:17:39;;;;;;;9.77;4.75;;;;;;;;;;5096923;28;20066;-92
2023/08/29 06:20:23;;;;;;;8.60;5.70;;;;;;;;;;5112795;28;20543;-92
2023/08/29 06:23:08;;;;;;;12.68;5.95;;;;;;;;;;5104714;28;20046;-92
2023/08/29 06:25:54;;;;;;;7.35;4.90;;;;;;;;;;5111511;28;20120;-92
2023/08/29 06:28:39;;;;;;;6.72;4.55;;;;;;;;;;5097735;28;20061;-92
2023/08/29 06:31:23;;;;;;;7.75;5.28;;;;;;;;;;5105602;28;20080;-93
2023/08/29 06:34:08;;;;;;;7.15;3.88;;;;;;;;;;5112191;28;20055;-92
2023/08/29 06:36:52;;;;;;;9.07;3.90;;;;;;;;;;5097595;28;20088;-90
2023/08/29 06:39:37;;;;;;;8.02;3.97;;;;;;;;;;5115343;28;20399;-93
2023/08/29 06:42:22;;;;;;;9.85;3.85;;;;;;;;;;5103805;28;20053;-86
2023/08/29 06:45:08;;;;;;;4.72;3.20;;;;;;;;;;5115638;28;20051;-92
2023/08/29 06:47:53;;;;;;;6.65;2.88;;;;;;;;;;5112682;28;20081;-92
2023/08/29 06:50:37;;;;;;;4.10;2.63;;;;;;;;;;5096937;28;20043;-92
2023/08/29 06:53:25;;;;;;;6.65;2.85;;;;;;;;;;5105220;28;20578;-93
2023/08/29 06:56:10;;;;;;;5.60;2.10;;;;;;;;;;5111342;28;20502;-91
2023/08/29 06:58:54;;;;;;;4.32;2.00;;;;;;;;;;5097675;28;20061;-91
2023/08/29 07:01:39;;;;;;;4.28;2.20;;;;;;;;;;5111032;28;20030;-92
2023/08/29 07:04:23;;;;;;;9.45;1.88;;;;;;;;;;5081276;28;20510;-93
2023/08/29 07:07:07;;;;;;;6.65;1.83;;;;;;;;;;5075934;28;20443;-94
2023/08/29 07:09:52;;;;;;;4.43;1.50;;;;;;;;;;5081025;28;20035;-92
2023/08/29 07:12:37;;;;;;;5.30;1.73;;;;;;;;;;5111779;28;20047;-90
2023/08/29 07:15:22;;;;;;;3.42;1.52;;;;;;;;;;5114444;27;20042;-92
2023/08/29 07:18:07;;;;;;;3.72;1.75;;;;;;;;;;5115556;27;20407;-84
2023/08/29 07:20:51;;;;;;;5.28;2.05;;;;;;;;;;5100569;28;20043;-92
2023/08/29 07:23:36;;;;;;;9.38;1.95;;;;;;;;;;5096819;28;20518;-92
2023/08/29 07:26:21;;;;;;;7.93;1.77;;;;;;;;;;5090745;28;20518;-91
2023/08/29 07:29:05;;;;;;;3.22;1.40;;;;;;;;;;5097882;28;20074;-92
2023/08/29 07:31:50;;;;;;;3.17;1.48;;;;;;;;;;5117468;27;20498;-91
2023/08/29 07:34:36;;;;;;;2.67;1.35;;;;;;;;;;5106087;28;20047;-93
2023/08/29 07:37:20;;;;;;;3.42;1.08;;;;;;;;;;5119152;28;20038;-91
2023/08/29 07:40:05;;;;;;;2.75;1.02;;;;;;;;;;5106060;27;20096;-91
2023/08/29 07:42:50;;;;;;;2.80;1.08;;;;;;;;;;5112471;28;20403;-93
2023/08/29 07:45:35;;;;;;;3.05;0.90;;;;;;;;;;5119990;27;20078;-91
2023/08/29 07:48:20;;;;;;;1.23;0.90;;;;;;;;;;5103402;28;20065;-91
2023/08/29 07:51:05;;;;;;;2.97;1.00;;;;;;;;;;5123479;28;20026;-90
2023/08/29 07:53:50;;;;;;;2.63;0.90;;;;;;;;;;5124498;27;20045;-92
2023/08/29 07:56:35;;;;;;;3.42;1.05;;;;;;;;;;5111846;28;20087;-93
2023/08/29 07:59:20;;;;;;;4.00;1.10;;;;;;;;;;5108961;28;20088;-92
2023/08/29 08:02:05;;;;;;;6.22;1.10;;;;;;;;;;5119086;27;20080;-90
2023/08/29 08:04:51;;;;;;;4.70;1.00;;;;;;;;;;5125766;27;20039;-90
2023/08/29 08:07:36;;;;;;;4.30;1.00;;;;;;;;;;5123753;28;20039;-89
2023/08/29 08:10:20;;;;;;;2.17;1.10;;;;;;;;;;5115396;28;20094;-91
2023/08/29 08:13:05;;;;;;;3.20;1.02;;;;;;;;;;5114841;28;20039;-91
2023/08/29 08:15:51;;;;;;;1.83;0.80;;;;;;;;;;5101337;28;20054;-94
2023/08/29 08:18:35;;;;;;;2.03;0.82;;;;;;;;;;5128863;27;20046;-91
2023/08/29 08:21:20;;;;;;;3.25;1.00;;;;;;;;;;5129382;27;20035;-94
2023/08/29 08:24:08;;;;;;;2.25;0.95;;;;;;;;;;5100774;28;20045;-91
2023/08/29 08:26:52;;;;;;;3.13;0.98;;;;;;;;;;5116802;28;20036;-93
2023/08/29 08:29:37;;;;;;;3.03;0.95;;;;;;;;;;5115769;28;20053;-93
2023/08/29 08:32:21;;;;;;;2.17;0.93;;;;;;;;;;5095913;27;20042;-94
2023/08/29 08:35:06;;;;;;;2.85;0.80;;;;;;;;;;5111631;28;20038;-92
2023/08/29 08:37:51;;;;;;;2.83;1.20;;;;;;;;;;5105259;28;20042;-91
2023/08/29 08:40:38;;;;;;;3.95;1.00;;;;;;;;;;5100223;28;20118;-92
2023/08/29 08:43:22;;;;;;;4.75;1.17;;;;;;;;;;5099614;28;20046;-89
2023/08/29 08:46:08;;;;;;;3.70;1.20;;;;;;;;;;5099066;28;20491;-94
2023/08/29 08:48:53;;;;;;;3.17;1.13;;;;;;;;;;5125326;27;20038;-92
2023/08/29 08:51:38;;;;;;;2.10;0.90;;;;;;;;;;5099452;28;20612;-94
2023/08/29 08:54:24;;;;;;;2.70;1.00;;;;;;;;;;5113861;28;20097;-93
2023/08/29 08:57:11;;;;;;;2.97;0.90;;;;;;;;;;5114701;28;20042;-94
2023/08/29 08:59:55;;;;;;;3.60;1.15;;;;;;;;;;5101358;28;20394;-91
2023/08/29 09:02:42;;;;;;;3.10;1.20;;;;;;;;;;5099327;27;20042;-89
2023/08/29 09:05:26;;;;;;;1.58;0.88;;;;;;;;;;5109149;28;20041;-91
2023/08/29 09:08:11;;;;;;;2.90;0.88;;;;;;;;;;5111632;27;20034;-95
2023/08/29 09:11:01;;;;;;;4.63;0.90;;;19.70;99.90;;;;;;5115693;28;20041;-93
2023/08/29 09:13:48;;;;;;;1.67;0.88;;;;;;;;;;5124328;28;20380;-94
2023/08/29 09:16:35;;;;;;;2.28;0.80;;;;;;;;;;5117481;28;20046;-93
2023/08/29 09:19:23;;;;;;;3.85;1.08;;;;;;;;;;5117668;28;20038;-94
2023/08/29 09:22:08;;;;;;;2.00;1.00;;;;;;;;;;5113985;28;20038;-93
2023/08/29 09:24:53;;;;;;;3.75;1.10;;;;;;;;;;5106575;28;20084;-93
2023/08/29 09:27:44;;;;;;;3.47;1.45;;;;;;;;;;5104775;28;20038;-94
2023/08/29 09:30:29;;;;;;;2.95;1.10;;;;;;;;;;5119862;28;20042;-89
2023/08/29 09:33:20;;;;;;;2.28;1.10;;;;;;;;;;5114953;28;20125;-93
2023/08/29 09:36:05;;;;;;;4.40;1.48;;;;;;;;;;5101044;28;20038;-93
2023/08/29 09:38:50;;;;;;;3.92;1.38;;;;;;;;;;5098402;28;20063;-92
2023/08/29 09:41:36;;;;;;;2.00;1.00;;;;;;;;;;5114421;27;20107;-91
2023/08/29 09:44:20;;;;;;;2.92;1.10;;;;;;;;;;5083132;28;20411;-92
2023/08/29 09:47:05;;;;;;;2.65;1.00;;;;;;;;;;5112803;28;20035;-91
2023/08/29 09:49:50;;;;;;;2.30;0.95;;;;;;;;;;5097044;28;20469;-90
2023/08/29 09:52:35;;;;;;;1.88;1.05;;;;;;;;;;5097565;28;20078;-91
2023/08/29 09:55:20;;;;;;;3.05;1.02;;;;;;;;;;5112676;28;20132;-92
2023/08/29 09:58:06;;;;;;;4.28;0.93;;;19.00;99.90;;;;;;5114050;28;20469;-91
2023/08/29 10:00:52;;;;;;;3.33;0.73;;;;;;;;;;5104179;28;20039;-92
2023/08/29 10:03:38;;;;;;;2.55;0.90;;;;;;;;;;5100499;28;20034;-93
2023/08/29 10:06:23;;;;;;;3.85;1.00;;;;;;;;;;5116777;28;20026;-91
2023/08/29 10:09:08;;;;;;;1.70;0.80;;;;;;;;;;5126579;28;20052;-91
2023/08/29 10:11:53;;;;;;;2.17;0.98;;;;;;;;;;5112816;28;20486;-95
2023/08/29 10:14:38;;;;;;;3.40;1.05;;;;;;;;;;5112134;28;20494;-93
2023/08/29 10:17:24;;;;;;;2.90;0.98;;;;;;;;;;5112625;28;20062;-91
2023/08/29 10:20:10;;;;;;;2.33;1.10;;;;;;;;;;5102724;28;20084;-91
2023/08/29 10:22:55;;;;;;;2.40;1.10;;;;;;;;;;5111998;28;20437;-93
2023/08/29 10:25:40;;;;;;;1.75;0.98;;;;;;;;;;5111675;28;20558;-94
2023/08/29 10:28:25;;;;;;;3.03;1.10;;;;;;;;;;5112163;28;20034;-92
2023/08/29 10:31:11;;;;;;;2.90;1.10;;;;;;;;;;5095440;28;20042;-92
2023/08/29 10:33:56;;;;;;;3.65;1.30;;;;;;;;;;5111389;28;20059;-91
2023/08/29 10:36:41;;;;;;;3.20;1.45;;;;;;;;;;5098787;28;20085;-92
2023/08/29 10:39:26;;;;;;;3.85;1.20;;;;;;;;;;5096295;28;20042;-93
2023/08/29 10:42:16;;;;;;;3.47;1.50;;;;;;;;;;5112121;28;20058;-94
2023/08/29 10:45:01;;;;;;;2.92;1.60;;;;;;;;;;5098997;28;20039;-95
2023/08/29 10:47:46;;;;;;;4.28;1.58;;;;;;;;;;5097550;28;20043;-94
2023/08/29 10:50:33;;;;;;;3.53;1.52;;;;;;;;;;5105919;27;20038;-94
2023/08/29 10:53:21;;;;;;;5.32;1.60;;;;;;;;;;5096871;28;20034;-94
2023/08/29 10:56:08;;;;;;;3.63;1.40;;;;;;;;;;5125297;28;20043;-95
2023/08/29 10:58:53;;;;;;;2.05;1.20;;;;;;;;;;5107834;28;20047;-95
2023/08/29 11:01:39;;;;;;;2.97;1.17;;;;;;;;;;5077733;28;20034;-93
2023/08/29 11:04:24;;;;;;;2.03;1.10;;;;;;;;;;5095814;28;20585;-92
2023/08/29 11:07:23;;;;;;;3.00;1.25;;;20.90;99.90;;;;;;5076652;28;20050;-95
2023/08/29 11:10:11;;;;;;;2.00;1.30;;;;;;;;;;5101571;28;20116;-95
2023/08/29 11:13:11;;;;;;;3.28;1.42;;;21.10;99.90;;;;;;5106045;27;20251;-94
2023/08/29 11:15:56;;;;;;;4.55;1.60;;;;;;;;;;5102999;28;20043;-92
2023/08/29 11:18:40;;;;;;;2.90;1.52;;;;;;;;;;5098286;28;20057;-93
2023/08/29 11:21:25;;;;;;;2.50;1.60;;;;;;;;;;5116001;27;20121;-93
2023/08/29 11:24:12;;;;;;;6.78;1.88;;;;;;;;;;5114128;27;20399;-94
2023/08/29 11:26:58;;;;;;;2.90;1.70;;;;;;;;;;5100226;28;20043;-93
2023/08/29 11:29:43;;;;;;;3.53;1.70;;;;;;;;;;5111902;27;20486;-94
2023/08/29 11:32:28;;;;;;;3.90;1.70;;;20.40;99.90;;;;;;5089706;27;20079;-93
2023/08/29 11:35:14;;;;;;;4.18;1.88;;;20.30;99.90;;;;;;5114637;28;20101;-93
2023/08/29 11:37:59;;;;;;;3.17;1.73;;;;;;;;;;5115053;27;20034;-95
2023/08/29 11:40:44;;;;;;;3.58;1.95;;;;;;;;;;5096649;28;20046;-91
2023/08/29 11:43:28;;;;;;;3.60;1.63;;;;;;;;;;5098801;28;20046;-92
2023/08/29 11:46:13;;;;;;;4.88;1.60;;;;;;;;;;5115887;28;20080;-96
2023/08/29 11:48:57;;;;;;;3.20;1.70;;;;;;;;;;5119292;28;20039;-94
2023/08/29 11:51:43;;;;;;;2.47;1.40;;;;;;;;;;5101138;28;20039;-85
2023/08/29 11:54:38;;;;;;;2.88;1.35;;;;;;;;;;5116075;27;20437;-93
2023/08/29 11:57:24;;;;;;;3.60;1.27;;;;;;;;;;5114707;28;20038;-90
2023/08/29 12:00:09;;;;;;;2.58;1.20;;;;;;;;;;5106053;28;20107;-93
2023/08/29 12:02:53;;;;;;;2.40;1.48;;;;;;;;;;5091802;28;20038;-92
2023/08/29 12:05:40;;;;;;;1.77;1.05;;;;;;;;;;5113564;27;20137;-93
2023/08/29 12:08:41;;;;;;;3.45;1.67;;;;;;;;;;5105512;28;20058;-93
2023/08/29 12:11:44;;;;;;;1.85;1.20;;;20.60;99.90;;;;;;5111789;28;20058;-92
2023/08/29 12:14:28;;;;;;;3.90;1.60;;;;;;;;;;5110811;27;20042;-94
2023/08/29 12:17:13;;;;;;;3.13;1.60;;;;;;;;;;5122986;27;20042;-91
2023/08/29 12:19:57;;;;;;;4.30;1.60;;;;;;;;;;5114069;28;20693;-91
2023/08/29 12:22:47;;;;;;;2.50;1.42;;;;;;;;;;5087995;28;20039;-90
2023/08/29 12:25:31;;;;;;;2.90;1.77;;;;;;;;;;5115195;27;20553;-91
2023/08/29 12:28:16;;;;;;;4.30;1.63;;;;;;;;;;5096109;28;20034;-92
2023/08/29 12:31:01;;;;;;;3.85;1.58;;;;;;;;;;5113871;28;20042;-90
2023/08/29 12:33:45;;;;;;;2.22;1.25;;;;;;;;;;5092475;28;20109;-86
2023/08/29 12:36:30;;;;;;;2.22;1.20;;;;;;;;;;5097910;28;20105;-92
2023/08/29 12:39:14;;;;;;;2.42;1.13;;;;;;;;;;5093526;28;20108;-91
2023/08/29 12:41:59;;;;;;;3.58;1.40;;;;;;;;;;5093250;28;20039;-91
2023/08/29 12:44:44;;;;;;;2.72;1.60;;;;;;;;;;5087418;28;20078;-89
2023/08/29 12:47:28;;;;;;;4.78;1.70;;;;;;;;;;5093374;28;20035;-91
2023/08/29 12:50:13;;;;;;;2.72;1.38;;;;;;;;;;5092238;28;20130;-92
2023/08/29 12:52:58;;;;;;;5.43;2.22;;;;;;;;;;5092772;28;20126;-92
2023/08/29 12:55:42;;;;;;;3.30;1.30;;;;;;;;;;5092277;28;20123;-88
2023/08/29 12:58:27;;;;;;;4.43;1.90;;;;;;;;;;5092422;28;20109;-92
2023/08/29 13:01:11;;;;;;;2.58;1.45;;;;;;;;;;5074314;28;20202;-91
2023/08/29 13:03:56;;;;;;;4.85;1.30;;;;;;;;;;5091746;28;20404;-92
2023/08/29 13:06:41;;;;;;;3.60;1.40;;;;;;;;;;5083811;28;20111;-91
2023/08/29 13:09:25;;;;;;;3.70;1.50;;;;;;;;;;5102387;28;20058;-91
2023/08/29 13:12:10;;;;;;;2.17;1.23;;;;;;;;;;5091617;28;20887;-91
2023/08/29 13:14:55;;;;;;;3.13;1.55;;;;;;;;;;5098707;28;20042;-90
2023/08/29 13:17:39;;;;;;;3.00;1.55;;;;;;;;;;5093981;28;20043;-91
2023/08/29 13:20:24;;;;;;;3.55;1.60;;;;;;;;;;5091957;28;20120;-93
2023/08/29 13:23:09;;;;;;;2.92;1.20;;;;;;;;;;5091631;28;20067;-91
2023/08/29 13:25:54;;;;;;;4.22;1.38;;;;;;;;;;5078878;28;20096;-87
2023/08/29 13:28:39;;;;;;;3.05;1.33;;;;;;;;;;5104455;28;20070;-92
2023/08/29 13:31:24;;;;;;;4.05;1.58;;;;;;;;;;5092793;28;20082;-93
2023/08/29 13:34:08;;;;;;;2.97;1.30;;;;;;;;;;5090999;28;20054;-92
2023/08/29 13:36:53;;;;;;;3.30;1.80;;;;;;;;;;5092663;28;20040;-92
2023/08/29 13:39:37;;;;;;;6.18;1.77;;;;;;;;;;5092971;28;20050;-92
2023/08/29 13:42:22;;;;;;;3.50;1.92;;;;;;;;;;5091375;28;20052;-90
2023/08/29 13:45:07;;;;;;;7.25;1.67;;;;;;;;;;5092238;28;20427;-91
2023/08/29 13:47:52;;;;;;;3.08;1.58;;;;;;;;;;5092409;28;20046;-92
2023/08/29 13:50:37;;;;;;;3.63;1.60;;;;;;;;;;5092433;28;20130;-92
2023/08/29 13:53:22;;;;;;;2.95;1.73;;;;;;;;;;5081120;28;20039;-92
2023/08/29 13:56:07;;;;;;;3.13;1.48;;;;;;;;;;5091891;28;20066;-93
2023/08/29 13:58:52;;;;;;;5.05;1.90;;;;;;;;;;5093450;28;20518;-92
2023/08/29 14:01:37;;;;;;;2.92;1.60;;;;;;;;;;5078632;28;20117;-95
2023/08/29 14:04:21;;;;;;;3.17;1.50;;;;;;;;;;5091793;28;20549;-93
2023/08/29 14:07:06;;;;;;;4.50;1.75;;;;;;;;;;5070392;28;20591;-91
2023/08/29 14:09:50;;;;;;;2.13;1.30;;;;;;;;;;5093867;28;20043;-93
2023/08/29 14:12:35;;;;;;;3.78;1.38;;;;;;;;;;5093170;28;20082;-92
2023/08/29 14:15:22;;;;;;;3.00;1.48;;;;;;;;;;5090325;28;20203;-91
2023/08/29 14:18:06;;;;;;;3.47;1.38;;;;;;;;;;5090640;28;20054;-93
2023/08/29 14:20:51;;;;;;;3.00;1.20;;;;;;;;;;5090767;28;20502;-91
2023/08/29 14:23:36;;;;;;;2.75;1.25;;;;;;;;;;5091312;28;20449;-93
2023/08/29 14:26:20;;;;;;;4.22;1.50;;;;;;;;;;5091393;28;20123;-90
2023/08/29 14:29:06;;;;;;;4.93;1.80;;;;;;;;;;5091106;28;20534;-91
2023/08/29 14:31:52;;;;;;;3.65;1.42;;;;;;;;;;5094660;28;20101;-92
2023/08/29 14:34:37;;;;;;;2.88;1.20;;;;;;;;;;5096718;28;20100;-91
2023/08/29 14:37:22;;;;;;;3.50;1.42;;;;;;;;;;5111533;28;20611;-92
2023/08/29 14:40:07;;;;;;;3.28;1.20;;;;;;;;;;5096103;28;20132;-88
2023/08/29 14:42:52;;;;;;;3.72;1.40;;;;;;;;;;5083034;28;20035;-93
2023/08/29 14:45:40;;;;;;;3.13;1.20;;;;;;;;;;5096547;28;20038;-92
2023/08/29 14:48:25;;;;;;;3.25;1.63;;;;;;;;;;5111532;28;20034;-94
2023/08/29 14:51:10;;;;;;;4.95;1.60;;;;;;;;;;5096509;28;20547;-92
2023/08/29 14:53:56;;;;;;;3.55;1.35;;;;;;;;;;5112086;28;20503;-92
2023/08/29 14:56:41;;;;;;;4.68;1.83;;;;;;;;;;5098722;28;20039;-90
2023/08/29 14:59:26;;;;;;;5.40;1.70;;;;;;;;;;5111189;28;20089;-91
2023/08/29 15:02:11;;;;;;;4.18;1.67;;;;;;;;;;5102329;28;20172;-89
2023/08/29 15:04:55;;;;;;;5.47;1.92;;;;;;;;;;5096225;28;20149;-90
2023/08/29 15:07:40;;;;;;;6.13;1.90;;;;;;;;;;5114265;28;20088;-90
2023/08/29 15:10:24;;;;;;;3.30;1.70;;;;;;;;;;5110903;28;20878;-90
2023/08/29 15:13:09;;;;;;;3.58;1.85;;;;;;;;;;5110953;28;20085;-89
2023/08/29 15:15:54;;;;;;;4.15;1.85;;;;;;;;;;5096235;28;20072;-92
2023/08/29 15:18:38;;;;;;;5.00;2.25;;;;;;;;;;5117481;28;20043;-91
2023/08/29 15:21:23;;;;;;;3.50;2.28;;;;;;;;;;5111004;28;20046;-91
2023/08/29 15:24:08;;;;;;;3.05;1.92;;;;;;;;;;5095895;28;20043;-87
2023/08/29 15:26:52;;;;;;;5.45;1.95;;;;;;;;;;5090353;28;20042;-90
2023/08/29 15:29:37;;;;;;;4.28;2.47;;;;;;;;;;5116297;28;20074;-91
2023/08/29 15:32:21;;;;;;;7.63;2.13;;;;;;;;;;5095527;28;20034;-91
2023/08/29 15:37:18;;;;;;;4.45;2.40;;;;;;;;;;5103312;27;1955676;-88
2023/08/29 15:40:03;;;;;;;3.60;2.45;;;;;;;;;;5127403;27;20498;-90
2023/08/29 15:42:48;;;;;;;9.48;2.72;;;;;;;;;;5146340;27;20033;-90
2023/08/29 15:45:35;;;;;;;4.95;3.20;;;;;;;;;;5137914;27;20173;-91
2023/08/29 15:48:20;;;;;;;3.78;2.72;;;;;;;;;;5139734;27;20406;-96
2023/08/29 15:51:04;;;;;;;5.32;2.60;;;;;;;;;;5144334;27;20073;-92
2023/08/29 15:53:51;;;;;;;3.38;2.13;;;;;;;;;;5114649;27;20095;-91
2023/08/29 15:56:36;;;;;;;4.43;2.17;;;;;;;;;;5129433;27;20045;-92
2023/08/29 15:59:21;;;;;;;3.58;2.25;;;;;;;;;;5132191;27;20042;-92
2023/08/29 16:02:05;;;;;;;3.30;1.92;;;;;;;;;;5130171;27;20441;-94
2023/08/29 16:04:50;;;;;;;3.58;2.25;;;;;;;;;;5129612;27;20107;-91
2023/08/29 16:07:35;;;;;;;3.33;2.15;;;;;;;;;;5129014;27;20101;-91
2023/08/29 16:10:19;;;;;;;4.28;2.00;;;;;;;;;;5115402;27;20039;-90
2023/08/29 16:13:04;;;;;;;4.07;2.17;;;;;;;;;;5113916;27;20061;-92
2023/08/29 16:15:49;;;;;;;6.97;1.90;;;;;;;;;;5136903;27;20111;-92
2023/08/29 16:18:34;;;;;;;5.05;1.95;;;;;;;;;;5149675;27;20062;-94
2023/08/29 16:21:19;;;;;;;4.57;2.28;;;;;;;;;;5150605;27;20137;-95
2023/08/29 16:24:04;;;;;;;7.72;2.67;;;;;;;;;;5137262;27;20034;-95
2023/08/29 16:26:48;;;;;;;5.85;2.15;;;;;;;;;;5150143;27;20498;-95
2023/08/29 16:29:33;;;;;;;4.05;2.10;;;;;;;;;;5133727;27;20474;-90